Time;durP1;ratioP1;P1;durP2;ratioP2;P2;SDS_P1;SDS_P2;PMS_P1;PMS_P2;Temp;Humidity;BMP_temperature;BMP_pressure;BME280_temperature;BME280_humidity;BME280_pressure;Samples;Min_cycle;Max_cycle;Signal;HPM_P1;HPM_P2
2023/09/04 00:01:35;;;;;;;6.35;3.83;;;;;;;;;;10426055;22;20011;-61
2023/09/04 00:05:35;;;;;;;4.20;3.47;;;;;;;;;;10433595;22;20670;-61
2023/09/04 00:09:35;;;;;;;4.40;3.90;;;;;;;;;;10429617;22;20002;-61
2023/09/04 00:13:36;;;;;;;3.83;3.47;;;;;;;;;;10430811;22;20068;-61
2023/09/04 00:17:36;;;;;;;3.67;3.38;;;;;;;;;;10425426;22;20034;-61
2023/09/04 00:21:36;;;;;;;4.17;3.53;;;;;;;;;;10424432;22;20005;-61
2023/09/04 00:25:37;;;;;;;6.30;3.40;;;;;;;;;;10430158;22;20213;-62
2023/09/04 00:29:37;;;;;;;5.88;3.38;;;;;;;;;;10427679;22;20003;-61
2023/09/04 00:33:38;;;;;;;5.35;3.60;;;;;;;;;;10422628;22;20364;-62
2023/09/04 00:37:38;;;;;;;4.60;3.83;;;;;;;;;;10416935;22;20056;-60
2023/09/04 00:41:38;;;;;;;6.55;3.95;;;;;;;;;;10424999;22;20292;-61
2023/09/04 00:45:39;;;;;;;4.18;3.33;;;;;;;;;;10400777;22;20018;-61
2023/09/04 00:49:41;;;;;;;3.50;3.20;;;;;;;;;;10427742;22;20075;-61
2023/09/04 00:53:41;;;;;;;4.82;4.15;;;;;;;;;;10429986;22;20014;-62
2023/09/04 00:57:42;;;;;;;3.78;3.47;;;;;;;;;;10429032;22;20007;-61
2023/09/04 01:01:42;;;;;;;3.80;3.40;;;;;;;;;;10424176;22;20045;-61
2023/09/04 01:05:42;;;;;;;5.33;3.70;;;;;;;;;;10426423;22;20074;-61
2023/09/04 01:09:42;;;;;;;5.57;3.13;;;;;;;;;;10419492;22;20003;-61
2023/09/04 01:13:53;;;;;;;5.30;3.50;;;;;;;;;;10420333;22;20007;-61
2023/09/04 01:17:53;;;;;;;3.40;3.10;;;;;;;;;;10423697;22;20049;-61
2023/09/04 01:21:54;;;;;;;3.63;3.25;;;;;;;;;;10420924;22;19998;-61
2023/09/04 01:25:57;;;;;;;5.72;3.55;;;;;;;;;;10424082;22;20077;-61
2023/09/04 01:30:04;;;;;;;3.65;3.17;;;;;;;;;;10426540;22;20007;-61
2023/09/04 01:34:07;;;;;;;4.60;3.50;;;;;;;;;;10435725;22;20030;-61
2023/09/04 01:38:07;;;;;;;6.20;3.25;;;;;;;;;;10431251;22;20029;-61
2023/09/04 01:42:08;;;;;;;3.97;2.90;;;;;;;;;;10433957;22;20014;-61
2023/09/04 01:46:08;;;;;;;3.93;3.27;;;;;;;;;;10432370;22;20152;-61
2023/09/04 01:50:09;;;;;;;4.72;3.78;;;;;;;;;;10404766;22;20318;-61
2023/09/04 01:54:09;;;;;;;3.42;3.13;;;;;;;;;;10435337;22;20025;-61
2023/09/04 01:58:10;;;;;;;3.67;3.38;;;;;;;;;;10433488;22;20034;-61
2023/09/04 02:02:10;;;;;;;4.07;3.15;;;;;;;;;;10422731;22;20329;-63
2023/09/04 02:06:10;;;;;;;4.43;3.20;;;;;;;;;;10432613;22;20821;-61
2023/09/04 02:10:10;;;;;;;3.43;3.10;;;;;;;;;;10425653;22;20040;-62
2023/09/04 02:14:11;;;;;;;4.70;3.37;;;;;;;;;;10431133;22;20034;-62
2023/09/04 02:18:11;;;;;;;3.90;3.50;;;;;;;;;;10427326;22;20237;-61
2023/09/04 02:22:11;;;;;;;3.50;3.00;;;;;;;;;;10428558;22;20009;-61
2023/09/04 02:26:11;;;;;;;4.47;3.50;;;;;;;;;;10427909;22;20006;-61
2023/09/04 02:30:12;;;;;;;3.73;3.37;;;;;;;;;;10426752;22;20221;-61
2023/09/04 02:34:14;;;;;;;4.93;3.45;;;;;;;;;;10431861;22;20094;-62
2023/09/04 02:38:15;;;;;;;3.97;3.10;;;;;;;;;;10426250;22;20006;-62
2023/09/04 02:42:15;;;;;;;3.65;3.35;;;;;;;;;;10424522;22;20021;-61
2023/09/04 02:46:15;;;;;;;3.63;3.20;;;;;;;;;;10430786;22;20011;-61
2023/09/04 02:50:15;;;;;;;4.90;3.17;;;;;;;;;;10432387;22;20041;-61
2023/09/04 02:54:15;;;;;;;4.55;3.60;;;;;;;;;;10430229;22;20011;-61
2023/09/04 02:58:17;;;;;;;5.93;3.50;;;;;;;;;;10430409;22;20011;-61
2023/09/04 03:02:17;;;;;;;4.90;3.50;;;;;;;;;;10426717;22;20025;-62
2023/09/04 03:06:17;;;;;;;4.35;3.60;;;;;;;;;;10430050;22;20003;-61
2023/09/04 03:10:17;;;;;;;3.92;3.33;;;;;;;;;;10428743;22;20395;-61
2023/09/04 03:14:17;;;;;;;3.47;3.17;;;;;;;;;;10428918;22;20077;-61
2023/09/04 03:18:18;;;;;;;2.90;2.65;;;;;;;;;;10428539;22;20023;-61
2023/09/04 03:22:18;;;;;;;4.38;3.47;;;;;;;;;;10428247;22;20045;-61
2023/09/04 03:26:18;;;;;;;4.38;3.17;;;;;;;;;;10429023;22;20003;-62
2023/09/04 03:30:19;;;;;;;3.20;2.90;;;;;;;;;;10400660;22;20383;-61
2023/09/04 03:34:19;;;;;;;3.05;2.80;;;;;;;;;;10427758;22;20010;-61
2023/09/04 03:38:19;;;;;;;3.60;3.30;;;;;;;;;;10427646;22;20018;-61
2023/09/04 03:42:19;;;;;;;4.72;3.67;;;;;;;;;;10428096;22;20002;-62
2023/09/04 03:46:19;;;;;;;4.03;3.28;;;;;;;;;;10429412;22;20014;-61
2023/09/04 03:50:20;;;;;;;5.32;3.42;;;;;;;;;;10428651;22;19999;-61
2023/09/04 03:54:21;;;;;;;5.67;3.13;;;;;;;;;;10427552;22;19995;-61
2023/09/04 03:58:21;;;;;;;4.93;3.50;;;;;;;;;;10430596;22;20255;-61
2023/09/04 04:02:21;;;;;;;3.60;2.88;;;;;;;;;;10425806;22;20103;-62
2023/09/04 04:06:22;;;;;;;3.38;3.08;;;;;;;;;;10427357;22;20308;-62
2023/09/04 04:10:22;;;;;;;5.30;2.95;;;;;;;;;;10425238;22;20144;-62
2023/09/04 04:14:23;;;;;;;4.03;3.63;;;;;;;;;;10426146;22;20007;-61
2023/09/04 04:18:23;;;;;;;3.00;2.80;;;;;;;;;;10427258;22;20015;-61
2023/09/04 04:22:23;;;;;;;4.60;3.43;;;;;;;;;;10427586;22;19999;-61
2023/09/04 04:26:24;;;;;;;3.58;3.10;;;;;;;;;;10428609;22;19999;-61
2023/09/04 04:30:24;;;;;;;3.65;3.00;;;;;;;;;;10424173;22;20003;-61
2023/09/04 04:34:25;;;;;;;6.80;3.22;;;;;;;;;;10427695;22;20653;-62
2023/09/04 04:38:25;;;;;;;6.75;2.88;;;;;;;;;;10426641;22;20064;-62
2023/09/04 04:42:25;;;;;;;3.42;2.90;;;;;;;;;;10402584;22;20013;-61
2023/09/04 04:46:25;;;;;;;4.20;3.07;;;;;;;;;;10424535;22;20010;-61
2023/09/04 04:50:25;;;;;;;3.57;3.27;;;;;;;;;;10427056;22;20010;-62
2023/09/04 04:54:26;;;;;;;3.60;3.30;;;;;;;;;;10426736;22;20007;-61
2023/09/04 04:58:26;;;;;;;2.90;2.70;;;;;;;;;;10428105;22;20411;-61
2023/09/04 05:02:26;;;;;;;3.85;3.15;;;;;;;;;;10422765;22;20334;-61
2023/09/04 05:06:26;;;;;;;3.50;3.15;;;;;;;;;;10429063;22;20003;-62
2023/09/04 05:10:27;;;;;;;4.87;3.20;;;;;;;;;;10425094;22;19990;-62
2023/09/04 05:14:27;;;;;;;5.23;2.97;;;;;;;;;;10426509;22;20225;-61
2023/09/04 05:18:27;;;;;;;3.40;2.70;;;;;;;;;;10428541;22;20018;-62
2023/09/04 05:22:28;;;;;;;3.45;3.05;;;;;;;;;;10427220;22;19999;-61
2023/09/04 05:26:28;;;;;;;3.90;3.40;;;;;;;;;;10426216;22;20003;-62
2023/09/04 05:30:28;;;;;;;4.55;3.13;;;;;;;;;;10424764;22;20124;-61
2023/09/04 05:34:28;;;;;;;3.58;3.10;;;;;;;;;;10427846;22;20010;-62
2023/09/04 05:38:29;;;;;;;7.53;3.60;;;;;;;;;;10425227;22;20009;-61
2023/09/04 05:42:29;;;;;;;7.97;3.00;;;;;;;;;;10427422;22;20272;-62
2023/09/04 05:46:30;;;;;;;4.25;3.10;;;;;;;;;;10426753;22;20077;-62
2023/09/04 05:50:30;;;;;;;5.78;2.95;;;;;;;;;;10433011;22;20400;-62
2023/09/04 05:54:31;;;;;;;3.35;2.88;;;;;;;;;;10432196;22;20025;-62
2023/09/04 05:58:31;;;;;;;3.97;3.23;;;;;;;;;;10429647;22;20003;-62
2023/09/04 06:02:31;;;;;;;6.43;3.50;;;;;;;;;;10430616;22;20264;-62
2023/09/04 06:06:31;;;;;;;3.90;3.50;;;;;;;;;;10430856;22;20758;-63
2023/09/04 06:10:31;;;;;;;6.73;3.40;;;;;;;;;;10431341;22;19998;-62
2023/09/04 06:14:32;;;;;;;4.50;3.55;;;;;;;;;;10428216;22;19995;-62
2023/09/04 06:18:32;;;;;;;5.03;3.60;;;;;;;;;;10429975;22;20088;-63
2023/09/04 06:22:32;;;;;;;4.00;3.30;;;;;;;;;;10428907;22;20047;-62
2023/09/04 06:26:32;;;;;;;4.10;3.17;;;;;;;;;;10431666;22;19999;-62
2023/09/04 06:30:33;;;;;;;3.72;3.20;;;;;;;;;;10429586;22;20007;-63
2023/09/04 06:34:33;;;;;;;3.53;2.90;;;;;;;;;;10430012;22;19999;-62
2023/09/04 06:38:33;;;;;;;3.30;3.03;;;;;;;;;;10426682;22;20048;-63
2023/09/04 06:42:34;;;;;;;3.00;2.80;;;;;;;;;;10429797;22;20001;-62
2023/09/04 06:46:34;;;;;;;3.65;2.67;;;;;;;;;;10427745;22;20355;-63
2023/09/04 06:50:34;;;;;;;3.05;2.80;;;;;;;;;;10428841;22;19995;-62
2023/09/04 06:54:35;;;;;;;4.22;2.50;;;;;;;;;;10428852;22;20047;-62
2023/09/04 06:58:47;;;;;;;3.97;2.90;;;;;;;;;;10428537;22;20048;-63
2023/09/04 07:02:47;;;;;;;8.93;2.83;;;;;;;;;;10428009;22;20019;-63
2023/09/04 07:06:48;;;;;;;2.60;2.40;;;;;;;;;;10430208;22;19999;-63
2023/09/04 07:10:48;;;;;;;2.67;2.47;;;;;;;;;;10429407;22;20006;-63
2023/09/04 07:14:48;;;;;;;2.90;2.60;;;;;;;;;;10438650;22;20013;-62
2023/09/04 07:18:49;;;;;;;4.38;2.83;;;;;;;;;;10426582;22;20017;-62
2023/09/04 07:22:49;;;;;;;3.50;2.38;;;;;;;;;;10430576;22;20018;-62
2023/09/04 07:26:49;;;;;;;5.77;2.67;;;;;;;;;;10430116;22;20081;-62
2023/09/04 07:30:53;;;;;;;4.00;2.85;;;;;;;;;;10429178;22;20006;-63
2023/09/04 07:34:56;;;;;;;2.92;2.60;;;;;;;;;;10432018;22;20383;-62
2023/09/04 07:38:56;;;;;;;6.47;2.80;;;;;;;;;;10432252;22;20014;-62
2023/09/04 07:42:56;;;;;;;4.82;2.70;;;;;;;;;;10430512;22;20708;-63
2023/09/04 07:46:56;;;;;;;4.40;2.50;;;;;;;;;;10427148;22;20376;-64
2023/09/04 07:50:56;;;;;;;6.43;3.22;;;;;;;;;;10429137;22;20002;-62
2023/09/04 07:54:57;;;;;;;3.93;2.47;;;;;;;;;;10429461;22;20006;-63
2023/09/04 07:58:57;;;;;;;4.28;2.60;;;;;;;;;;10431042;22;20010;-62
2023/09/04 08:02:57;;;;;;;2.97;2.50;;;;;;;;;;10427743;22;20057;-62
2023/09/04 08:06:57;;;;;;;2.30;2.10;;;;;;;;;;10429727;22;20932;-62
2023/09/04 08:10:58;;;;;;;2.50;1.90;;;;;;;;;;10401217;22;20052;-62
2023/09/04 08:14:58;;;;;;;2.35;2.15;;;;;;;;;;10429487;22;20087;-62
2023/09/04 08:18:58;;;;;;;2.40;2.17;;;;;;;;;;10397269;22;20019;-64
2023/09/04 08:22:58;;;;;;;3.22;2.28;;;;;;;;;;10429224;22;20251;-62
2023/09/04 08:26:59;;;;;;;2.20;1.90;;;;;;;;;;10429378;22;20006;-62
2023/09/04 08:30:59;;;;;;;2.22;2.03;;;;;;;;;;10427127;22;20007;-62
2023/09/04 08:34:59;;;;;;;2.38;2.10;;;;;;;;;;10430481;22;19998;-62
2023/09/04 08:38:59;;;;;;;3.20;2.20;;;;;;;;;;10425227;22;19999;-62
2023/09/04 08:43:00;;;;;;;2.42;2.08;;;;;;;;;;10428102;22;20002;-62
2023/09/04 08:47:01;;;;;;;7.07;2.42;;;;;;;;;;10428198;22;20014;-62
2023/09/04 08:51:02;;;;;;;14.73;2.58;;;;;;;;;;10431009;22;20006;-62
2023/09/04 08:55:06;;;;;;;7.80;2.17;;;;;;;;;;10423417;22;20013;-62
2023/09/04 08:59:06;;;;;;;15.95;2.58;;;;;;;;;;10428624;22;19998;-62
2023/09/04 09:03:06;;;;;;;6.13;1.98;;;;;;;;;;10423450;22;20025;-62
2023/09/04 09:07:07;;;;;;;2.13;1.88;;;;;;;;;;10430061;22;20002;-62
2023/09/04 09:11:08;;;;;;;3.20;2.28;;;;;;;;;;10427677;22;20007;-62
2023/09/04 09:15:08;;;;;;;4.10;2.00;;;;;;;;;;10425957;22;20704;-62
2023/09/04 09:19:09;;;;;;;5.27;2.10;;;;;;;;;;10429458;22;20232;-63
2023/09/04 09:23:09;;;;;;;2.67;2.10;;;;;;;;;;10429516;22;20038;-62
2023/09/04 09:27:09;;;;;;;2.15;1.95;;;;;;;;;;10432954;22;20071;-62
2023/09/04 09:31:11;;;;;;;2.30;2.10;;;;;;;;;;10432478;22;20018;-62
2023/09/04 09:35:11;;;;;;;3.65;2.47;;;;;;;;;;10406583;22;20006;-61
2023/09/04 09:39:11;;;;;;;5.80;2.28;;;;;;;;;;10428096;22;20714;-62
2023/09/04 09:43:12;;;;;;;2.25;2.05;;;;;;;;;;10402744;22;20117;-62
2023/09/04 09:47:13;;;;;;;2.60;2.40;;;;;;;;;;10402493;22;20014;-62
2023/09/04 09:51:13;;;;;;;3.45;2.53;;;;;;;;;;10430717;22;20082;-62
2023/09/04 09:55:23;;;;;;;2.88;2.60;;;;;;;;;;10432134;22;19999;-62
2023/09/04 09:59:23;;;;;;;6.30;3.03;;;;;;;;;;10431000;22;20417;-62
2023/09/04 10:03:23;;;;;;;3.78;2.47;;;;;;;;;;10430856;22;20014;-62
2023/09/04 10:07:27;;;;;;;2.30;2.10;;;;;;;;;;10415339;22;20010;-62
2023/09/04 10:11:30;;;;;;;4.10;2.50;;;;;;;;;;10425701;22;20692;-62
2023/09/04 10:15:32;;;;;;;3.30;2.72;;;;;;;;;;10429011;22;20101;-62
2023/09/04 10:19:33;;;;;;;4.40;2.60;;;;;;;;;;10428030;22;19998;-62
2023/09/04 10:23:37;;;;;;;3.95;3.00;;;;;;;;;;10431573;22;20251;-62
2023/09/04 10:27:41;;;;;;;3.78;2.72;;;;;;;;;;10433106;22;20121;-62
2023/09/04 10:31:42;;;;;;;2.60;2.33;;;;;;;;;;10429179;22;20624;-62
2023/09/04 10:35:42;;;;;;;2.60;2.40;;;;;;;;;;10430094;22;20010;-62
2023/09/04 10:39:43;;;;;;;4.87;2.30;;;;;;;;;;10426749;22;19995;-63
2023/09/04 10:43:44;;;;;;;3.22;2.28;;;;;;;;;;10429562;22;20248;-61
2023/09/04 10:47:46;;;;;;;3.42;2.50;;;;;;;;;;10428406;22;20386;-62
2023/09/04 10:51:46;;;;;;;3.03;2.20;;;;;;;;;;10427924;22;19999;-62
2023/09/04 10:56:08;;;;;;;3.88;2.10;;;;;;;;;;10430969;22;20244;-61
2023/09/04 11:00:08;;;;;;;5.22;2.72;;;;;;;;;;10429577;22;19999;-61
2023/09/04 11:04:08;;;;;;;4.30;2.60;;;;;;;;;;10427977;22;19999;-61
2023/09/04 11:08:25;;;;;;;3.70;2.20;;;;;;;;;;10423430;22;20010;-61
2023/09/04 11:12:25;;;;;;;2.78;2.20;;;;;;;;;;10426653;22;20003;-61
2023/09/04 11:16:26;;;;;;;3.28;2.00;;;;;;;;;;10429043;22;20839;-62
2023/09/04 11:20:30;;;;;;;2.40;2.20;;;;;;;;;;10429104;22;20000;-61
2023/09/04 11:24:31;;;;;;;4.35;2.30;;;;;;;;;;10429123;22;20388;-62
2023/09/04 11:28:31;;;;;;;2.58;2.00;;;;;;;;;;10432544;22;20090;-61
2023/09/04 11:32:35;;;;;;;2.95;1.80;;;;;;;;;;10428869;22;20026;-61
2023/09/04 11:36:36;;;;;;;3.97;1.95;;;;;;;;;;10427329;22;20007;-61
2023/09/04 11:40:37;;;;;;;4.72;1.70;;;;;;;;;;10428440;22;20053;-61
2023/09/04 11:44:37;;;;;;;3.67;1.90;;;;;;;;;;10425987;22;19995;-62
2023/09/04 11:48:37;;;;;;;2.80;2.03;;;;;;;;;;10429780;22;20015;-62
2023/09/04 11:52:39;;;;;;;3.78;1.80;;;;;;;;;;10430584;22;20064;-61
2023/09/04 11:56:40;;;;;;;1.83;1.73;;;;;;;;;;10430817;22;20512;-62
2023/09/04 12:00:41;;;;;;;3.72;1.83;;;;;;;;;;10427971;22;20724;-61
2023/09/04 12:04:41;;;;;;;2.10;1.90;;;;;;;;;;10429624;22;20649;-61
2023/09/04 12:08:42;;;;;;;2.58;2.38;;;;;;;;;;10427387;22;20305;-61
2023/09/04 12:12:42;;;;;;;4.00;1.90;;;;;;;;;;10427592;22;20001;-61
2023/09/04 12:16:43;;;;;;;2.45;1.80;;;;;;;;;;10427626;22;20523;-61
2023/09/04 12:20:44;;;;;;;2.25;1.67;;;;;;;;;;10427204;22;20113;-61
2023/09/04 12:25:04;;;;;;;1.95;1.63;;;;;;;;;;10429578;22;20009;-61
2023/09/04 12:29:04;;;;;;;2.55;1.60;;;;;;;;;;10430460;22;20490;-62
2023/09/04 12:33:08;;;;;;;1.98;1.50;;;;;;;;;;10425985;22;20025;-61
2023/09/04 12:37:11;;;;;;;4.10;1.63;;;;;;;;;;10423650;22;19998;-61
2023/09/04 12:41:11;;;;;;;1.60;1.50;;;;;;;;;;10393970;22;20457;-61
2023/09/04 12:45:11;;;;;;;2.13;1.70;;;;;;;;;;10420223;22;20551;-62
2023/09/04 12:49:12;;;;;;;1.92;1.70;;;;;;;;;;10423026;22;19999;-61
2023/09/04 12:53:12;;;;;;;1.80;1.70;;;;;;;;;;10423478;22;20003;-62
2023/09/04 12:57:12;;;;;;;3.45;1.85;;;;;;;;;;10422169;22;20003;-61
2023/09/04 13:01:12;;;;;;;3.70;1.77;;;;;;;;;;10423210;22;20007;-62
2023/09/04 13:05:13;;;;;;;1.80;1.70;;;;;;;;;;10421737;22;20079;-61
2023/09/04 13:09:14;;;;;;;2.22;1.50;;;;;;;;;;10421877;22;20007;-62
2023/09/04 13:13:16;;;;;;;2.77;1.57;;;;;;;;;;10415409;22;20038;-62
2023/09/04 13:17:16;;;;;;;1.75;1.60;;;;;;;;;;10414531;22;20233;-63
2023/09/04 13:21:17;;;;;;;1.50;1.40;;;;;;;;;;10419967;22;20022;-61
2023/09/04 13:25:17;;;;;;;1.50;1.40;;;;;;;;;;10423871;22;20006;-62
2023/09/04 13:29:17;;;;;;;1.73;1.58;;;;;;;;;;10421997;22;20319;-61
2023/09/04 13:33:17;;;;;;;1.63;1.50;;;;;;;;;;10421799;22;20099;-61
2023/09/04 13:37:17;;;;;;;1.83;1.60;;;;;;;;;;10413303;22;19999;-62
2023/09/04 13:41:18;;;;;;;2.17;1.70;;;;;;;;;;10414243;22;20007;-61
2023/09/04 13:45:18;;;;;;;7.57;1.90;;;;;;;;;;10418389;22;19995;-62
2023/09/04 13:49:18;;;;;;;2.13;1.60;;;;;;;;;;10421859;22;20304;-62
2023/09/04 13:53:18;;;;;;;1.55;1.40;;;;;;;;;;10420570;22;20761;-62
2023/09/04 13:57:19;;;;;;;2.20;1.50;;;;;;;;;;10422216;22;20018;-61
2023/09/04 14:01:19;;;;;;;1.77;1.65;;;;;;;;;;10416852;22;20320;-61
2023/09/04 14:05:19;;;;;;;2.97;1.52;;;;;;;;;;10420323;22;20006;-62
2023/09/04 14:09:19;;;;;;;3.72;1.73;;;;;;;;;;10419572;22;20013;-61
2023/09/04 14:13:20;;;;;;;1.60;1.50;;;;;;;;;;10426284;22;20074;-61
2023/09/04 14:17:20;;;;;;;2.20;1.73;;;;;;;;;;10422921;22;20018;-61
2023/09/04 14:21:21;;;;;;;1.80;1.70;;;;;;;;;;10421433;22;20769;-62
2023/09/04 14:25:21;;;;;;;2.00;1.63;;;;;;;;;;10407821;22;20105;-61
2023/09/04 14:29:21;;;;;;;3.20;1.40;;;;;;;;;;10417272;22;19999;-61
2023/09/04 14:33:21;;;;;;;4.00;1.70;;;;;;;;;;10419996;22;20493;-62
2023/09/04 14:37:22;;;;;;;1.77;1.67;;;;;;;;;;10411383;22;20010;-61
2023/09/04 14:41:28;;;;;;;4.05;1.73;;;;;;;;;;10418603;22;20005;-62
2023/09/04 14:45:30;;;;;;;2.22;1.70;;;;;;;;;;10409528;22;20615;-62
2023/09/04 14:49:30;;;;;;;2.33;2.00;;;;;;;;;;10420980;22;20215;-62
2023/09/04 14:53:30;;;;;;;4.90;1.70;;;;;;;;;;10414391;22;20214;-61
2023/09/04 14:57:30;;;;;;;4.10;1.93;;;;;;;;;;10422024;22;19999;-61
2023/09/04 15:01:31;;;;;;;1.70;1.60;;;;;;;;;;10415195;22;20021;-62
2023/09/04 15:05:31;;;;;;;1.80;1.63;;;;;;;;;;10420139;22;20699;-61
2023/09/04 15:09:31;;;;;;;2.20;1.70;;;;;;;;;;10418804;22;20005;-61
2023/09/04 15:13:33;;;;;;;1.60;1.50;;;;;;;;;;10420003;22;20010;-61
2023/09/04 15:17:33;;;;;;;2.50;1.70;;;;;;;;;;10421173;22;20019;-61
2023/09/04 15:21:33;;;;;;;3.07;1.60;;;;;;;;;;10423547;22;20033;-62
2023/09/04 15:25:34;;;;;;;2.00;1.42;;;;;;;;;;10422115;22;19998;-61
2023/09/04 15:29:34;;;;;;;2.45;1.60;;;;;;;;;;10421763;22;20387;-61
2023/09/04 15:33:34;;;;;;;1.95;1.50;;;;;;;;;;10418799;22;20017;-62
2023/09/04 15:37:34;;;;;;;1.90;1.70;;;;;;;;;;10424138;22;20007;-62
2023/09/04 15:41:36;;;;;;;1.92;1.73;;;;;;;;;;10421117;22;20068;-62
2023/09/04 15:45:40;;;;;;;2.10;1.77;;;;;;;;;;10422403;22;20060;-61
2023/09/04 15:49:40;;;;;;;1.85;1.67;;;;;;;;;;10393689;22;20018;-62
2023/09/04 15:53:40;;;;;;;2.55;1.40;;;;;;;;;;10415480;22;20978;-61
2023/09/04 15:57:41;;;;;;;2.03;1.48;;;;;;;;;;10413844;22;20167;-62
2023/09/04 16:01:41;;;;;;;3.25;1.45;;;;;;;;;;10419778;22;20021;-61
2023/09/04 16:05:41;;;;;;;2.28;1.50;;;;;;;;;;10420788;22;20002;-62
2023/09/04 16:09:41;;;;;;;2.47;1.57;;;;;;;;;;10418558;22;19995;-61
2023/09/04 16:13:42;;;;;;;2.77;1.90;;;;;;;;;;10397281;22;20225;-62
2023/09/04 16:17:42;;;;;;;2.80;1.70;;;;;;;;;;10420367;22;20121;-62
2023/09/04 16:21:42;;;;;;;1.50;1.40;;;;;;;;;;10423471;22;19999;-61
2023/09/04 16:25:43;;;;;;;5.57;1.73;;;;;;;;;;10397026;22;20014;-61
2023/09/04 16:29:43;;;;;;;2.28;1.50;;;;;;;;;;10395223;22;20006;-61
2023/09/04 16:33:43;;;;;;;2.80;1.60;;;;;;;;;;10422584;22;20014;-61
2023/09/04 16:37:43;;;;;;;3.80;1.70;;;;;;;;;;10422338;22;20075;-61
2023/09/04 16:41:44;;;;;;;1.60;1.50;;;;;;;;;;10422270;22;20007;-61
2023/09/04 16:45:45;;;;;;;3.20;1.65;;;;;;;;;;10423982;22;20099;-61
2023/09/04 16:49:45;;;;;;;3.83;1.67;;;;;;;;;;10422635;22;20070;-61
2023/09/04 16:53:46;;;;;;;4.25;1.90;;;;;;;;;;10425489;22;19995;-61
2023/09/04 16:57:46;;;;;;;3.20;1.60;;;;;;;;;;10424567;22;20006;-61
2023/09/04 17:01:46;;;;;;;2.58;1.65;;;;;;;;;;10420754;22;20026;-61
2023/09/04 17:05:47;;;;;;;3.80;1.70;;;;;;;;;;10427307;22;20109;-61
2023/09/04 17:09:47;;;;;;;1.70;1.60;;;;;;;;;;10420876;22;19995;-61
2023/09/04 17:13:47;;;;;;;5.27;1.80;;;;;;;;;;10422554;22;20003;-61
2023/09/04 17:17:48;;;;;;;2.00;1.60;;;;;;;;;;10425656;22;20025;-61
2023/09/04 17:21:48;;;;;;;1.90;1.60;;;;;;;;;;10428250;22;20009;-61
2023/09/04 17:25:48;;;;;;;1.60;1.50;;;;;;;;;;10428825;22;20113;-62
2023/09/04 17:29:50;;;;;;;4.23;1.40;;;;;;;;;;10428286;22;19994;-62
2023/09/04 17:33:50;;;;;;;2.25;1.58;;;;;;;;;;10426473;22;20755;-61
2023/09/04 17:37:51;;;;;;;1.80;1.70;;;;;;;;;;10429194;22;20103;-65
2023/09/04 17:41:51;;;;;;;1.48;1.38;;;;;;;;;;10430695;22;20225;-62
2023/09/04 17:45:52;;;;;;;3.30;1.50;;;;;;;;;;10431169;22;20094;-61
2023/09/04 17:49:52;;;;;;;1.38;1.25;;;;;;;;;;10430827;22;19998;-61
2023/09/04 17:53:52;;;;;;;3.70;1.75;;;;;;;;;;10432116;22;20577;-61
2023/09/04 17:57:52;;;;;;;1.50;1.40;;;;;;;;;;10432323;22;20007;-61
2023/09/04 18:01:54;;;;;;;2.97;2.00;;;;;;;;;;10428149;22;20033;-62
2023/09/04 18:05:54;;;;;;;5.80;1.80;;;;;;;;;;10431282;22;19998;-61
2023/09/04 18:09:54;;;;;;;2.28;1.70;;;;;;;;;;10431092;22;20010;-62
2023/09/04 18:13:54;;;;;;;2.17;1.58;;;;;;;;;;10402384;22;20010;-61
2023/09/04 18:17:55;;;;;;;2.13;1.90;;;;;;;;;;10430980;22;20015;-61
2023/09/04 18:21:55;;;;;;;6.27;1.80;;;;;;;;;;10434152;22;20229;-60
2023/09/04 18:25:55;;;;;;;7.35;1.85;;;;;;;;;;10430688;22;19994;-61
2023/09/04 18:29:55;;;;;;;4.43;1.77;;;;;;;;;;10425277;22;19998;-60
2023/09/04 18:33:56;;;;;;;3.95;1.90;;;;;;;;;;10425046;22;20014;-60
2023/09/04 18:37:56;;;;;;;4.15;2.03;;;;;;;;;;10425486;22;20068;-60
2023/09/04 18:41:56;;;;;;;2.90;2.00;;;;;;;;;;10425170;22;20078;-60
2023/09/04 18:45:56;;;;;;;3.83;1.95;;;;;;;;;;10426336;22;20019;-60
2023/09/04 18:49:56;;;;;;;3.75;2.30;;;;;;;;;;10423670;22;20700;-60
2023/09/04 18:53:57;;;;;;;6.00;2.08;;;;;;;;;;10424894;22;19995;-60
2023/09/04 18:57:57;;;;;;;6.33;2.13;;;;;;;;;;10426429;22;20010;-60
2023/09/04 19:01:57;;;;;;;3.30;2.17;;;;;;;;;;10422943;22;21161;-61
2023/09/04 19:05:58;;;;;;;5.23;1.90;;;;;;;;;;10425849;22;20384;-61
2023/09/04 19:09:58;;;;;;;5.73;2.40;;;;;;;;;;10395596;22;20801;-61
2023/09/04 19:13:58;;;;;;;4.97;2.25;;;;;;;;;;10428604;22;20722;-62
2023/09/04 19:17:58;;;;;;;2.53;2.00;;;;;;;;;;10424653;22;20026;-60
2023/09/04 19:21:58;;;;;;;2.17;1.98;;;;;;;;;;10424134;22;20010;-61
2023/09/04 19:25:59;;;;;;;3.37;1.83;;;;;;;;;;10398121;22;20153;-60
2023/09/04 19:29:59;;;;;;;5.63;2.00;;;;;;;;;;10425144;22;20682;-61
2023/09/04 19:33:59;;;;;;;2.27;1.70;;;;;;;;;;10425191;22;20029;-60
2023/09/04 19:37:59;;;;;;;6.07;1.90;;;;;;;;;;10423349;22;20480;-60
2023/09/04 19:42:00;;;;;;;4.50;2.05;;;;;;;;;;10424747;22;20002;-61
2023/09/04 19:46:00;;;;;;;1.73;1.63;;;;;;;;;;10421647;22;20022;-60
2023/09/04 19:50:03;;;;;;;1.97;1.77;;;;;;;;;;10419052;22;20015;-60
2023/09/04 19:54:03;;;;;;;2.90;2.00;;;;;;;;;;10420922;22;20022;-61
2023/09/04 19:58:03;;;;;;;1.98;1.67;;;;;;;;;;10420248;22;19998;-60
2023/09/04 20:02:04;;;;;;;3.13;1.90;;;;;;;;;;10420264;22;20010;-62
2023/09/04 20:06:04;;;;;;;3.92;1.90;;;;;;;;;;10423238;22;20406;-61
2023/09/04 20:10:04;;;;;;;4.03;1.90;;;;;;;;;;10422572;22;19994;-62
2023/09/04 20:14:05;;;;;;;2.17;1.80;;;;;;;;;;10423167;22;20003;-61
2023/09/04 20:18:08;;;;;;;2.40;1.70;;;;;;;;;;10423535;22;20018;-60
2023/09/04 20:22:09;;;;;;;7.60;1.75;;;;;;;;;;10424103;22;20052;-61
2023/09/04 20:26:10;;;;;;;2.67;1.90;;;;;;;;;;10427274;22;19998;-61
2023/09/04 20:30:11;;;;;;;1.70;1.60;;;;;;;;;;10423234;22;20001;-61
2023/09/04 20:34:12;;;;;;;3.20;1.80;;;;;;;;;;10427465;22;20555;-61
2023/09/04 20:38:12;;;;;;;2.13;1.70;;;;;;;;;;10399479;22;20014;-61
2023/09/04 20:42:12;;;;;;;2.22;1.52;;;;;;;;;;10419945;22;20060;-61
2023/09/04 20:46:17;;;;;;;1.63;1.40;;;;;;;;;;10429665;22;20014;-61
2023/09/04 20:50:18;;;;;;;2.83;1.80;;;;;;;;;;10425590;22;20011;-62
2023/09/04 20:54:18;;;;;;;3.42;1.63;;;;;;;;;;10427214;22;19991;-61
2023/09/04 20:58:18;;;;;;;2.58;1.50;;;;;;;;;;10429523;22;20056;-60
2023/09/04 21:02:19;;;;;;;1.70;1.50;;;;;;;;;;10426807;22;20014;-61
2023/09/04 21:06:19;;;;;;;1.67;1.57;;;;;;;;;;10427553;22;20007;-61
2023/09/04 23:23:49;;;;;;;3.70;1.77;;;;;;;;;;10426261;22;20009;-61
2023/09/04 23:27:50;;;;;;;1.70;1.52;;;;;;;;;;10429716;22;20002;-61
2023/09/04 23:31:58;;;;;;;2.58;1.77;;;;;;;;;;10423021;22;20041;-61
2023/09/04 23:36:14;;;;;;;1.95;1.60;;;;;;;;;;10428847;22;20075;-61
2023/09/04 23:48:52;;;;;;;3.35;2.00;;;;;;;;;;10427124;22;20534;-60
2023/09/04 23:52:52;;;;;;;2.20;1.80;;;;;;;;;;10425535;22;20002;-61
2023/09/04 23:56:53;;;;;;;2.03;1.70;;;;;;;;;;10428525;22;20032;-61
